sensor_id;sensor_type;location;lat;lon;timestamp;P1;durP1;ratioP1;P2;durP2;ratioP2
39982;SDS011;25670;44.782;10.356;2022-08-05T00:01:49;11.95;;;4.60;;
39982;SDS011;25670;44.782;10.356;2022-08-05T00:04:15;2.20;;;1.70;;
39982;SDS011;25670;44.782;10.356;2022-08-05T00:06:43;4.72;;;2.28;;
39982;SDS011;25670;44.782;10.356;2022-08-05T00:09:09;2.63;;;2.10;;
39982;SDS011;25670;44.782;10.356;2022-08-05T00:11:35;3.83;;;2.00;;
39982;SDS011;25670;44.782;10.356;2022-08-05T00:14:02;1.70;;;1.60;;
39982;SDS011;25670;44.782;10.356;2022-08-05T00:16:28;1.77;;;1.67;;
39982;SDS011;25670;44.782;10.356;2022-08-05T00:18:55;1.48;;;1.48;;
39982;SDS011;25670;44.782;10.356;2022-08-05T00:21:21;3.63;;;1.50;;
39982;SDS011;25670;44.782;10.356;2022-08-05T00:23:47;1.80;;;1.50;;
39982;SDS011;25670;44.782;10.356;2022-08-05T00:26:17;2.47;;;1.42;;
39982;SDS011;25670;44.782;10.356;2022-08-05T00:28:44;1.90;;;1.80;;
39982;SDS011;25670;44.782;10.356;2022-08-05T00:31:10;2.78;;;1.60;;
39982;SDS011;25670;44.782;10.356;2022-08-05T00:33:37;4.95;;;1.63;;
39982;SDS011;25670;44.782;10.356;2022-08-05T00:36:03;1.80;;;1.50;;
39982;SDS011;25670;44.782;10.356;2022-08-05T00:38:30;1.77;;;1.67;;
39982;SDS011;25670;44.782;10.356;2022-08-05T00:40:57;1.80;;;1.70;;
39982;SDS011;25670;44.782;10.356;2022-08-05T00:43:26;3.78;;;2.20;;
39982;SDS011;25670;44.782;10.356;2022-08-05T00:45:53;7.15;;;1.80;;
39982;SDS011;25670;44.782;10.356;2022-08-05T00:48:20;1.90;;;1.80;;
39982;SDS011;25670;44.782;10.356;2022-08-05T00:50:50;1.83;;;1.73;;
39982;SDS011;25670;44.782;10.356;2022-08-05T00:53:17;1.80;;;1.70;;
39982;SDS011;25670;44.782;10.356;2022-08-05T00:55:45;2.95;;;1.85;;
39982;SDS011;25670;44.782;10.356;2022-08-05T00:58:13;4.38;;;1.80;;
39982;SDS011;25670;44.782;10.356;2022-08-05T01:00:44;2.88;;;1.48;;
39982;SDS011;25670;44.782;10.356;2022-08-05T01:03:11;1.75;;;1.65;;
39982;SDS011;25670;44.782;10.356;2022-08-05T01:05:38;1.85;;;1.75;;
39982;SDS011;25670;44.782;10.356;2022-08-05T01:08:04;1.83;;;1.73;;
39982;SDS011;25670;44.782;10.356;2022-08-05T01:10:53;2.05;;;1.95;;
39982;SDS011;25670;44.782;10.356;2022-08-05T01:16:10;2.22;;;1.90;;
39982;SDS011;25670;44.782;10.356;2022-08-05T01:18:41;2.50;;;2.30;;
39982;SDS011;25670;44.782;10.356;2022-08-05T01:21:15;3.92;;;2.20;;
39982;SDS011;25670;44.782;10.356;2022-08-05T01:29:51;5.93;;;2.60;;
39982;SDS011;25670;44.782;10.356;2022-08-05T01:32:21;3.20;;;2.22;;
39982;SDS011;25670;44.782;10.356;2022-08-05T01:34:53;2.17;;;2.00;;
39982;SDS011;25670;44.782;10.356;2022-08-05T01:39:58;3.78;;;2.10;;
39982;SDS011;25670;44.782;10.356;2022-08-05T01:42:27;2.00;;;1.90;;
39982;SDS011;25670;44.782;10.356;2022-08-05T01:44:58;2.15;;;2.05;;
39982;SDS011;25670;44.782;10.356;2022-08-05T01:49:54;4.55;;;2.30;;
39982;SDS011;25670;44.782;10.356;2022-08-05T01:52:21;3.55;;;1.95;;
39982;SDS011;25670;44.782;10.356;2022-08-05T01:54:51;2.42;;;1.60;;
39982;SDS011;25670;44.782;10.356;2022-08-05T01:57:28;1.85;;;1.75;;
39982;SDS011;25670;44.782;10.356;2022-08-05T01:59:58;2.58;;;2.03;;
39982;SDS011;25670;44.782;10.356;2022-08-05T02:02:27;3.38;;;2.08;;
39982;SDS011;25670;44.782;10.356;2022-08-05T02:04:57;2.22;;;2.03;;
39982;SDS011;25670;44.782;10.356;2022-08-05T02:07:30;2.53;;;2.42;;
39982;SDS011;25670;44.782;10.356;2022-08-05T02:10:10;2.13;;;2.03;;
39982;SDS011;25670;44.782;10.356;2022-08-05T02:12:50;2.28;;;2.10;;
39982;SDS011;25670;44.782;10.356;2022-08-05T02:18:43;2.92;;;1.90;;
39982;SDS011;25670;44.782;10.356;2022-08-05T02:21:27;4.70;;;2.30;;
39982;SDS011;25670;44.782;10.356;2022-08-05T02:23:58;5.30;;;2.00;;
39982;SDS011;25670;44.782;10.356;2022-08-05T02:26:47;2.33;;;2.13;;
39982;SDS011;25670;44.782;10.356;2022-08-05T02:29:18;3.95;;;1.70;;
39982;SDS011;25670;44.782;10.356;2022-08-05T02:31:46;2.60;;;2.40;;
39982;SDS011;25670;44.782;10.356;2022-08-05T02:34:14;3.33;;;2.92;;
39982;SDS011;25670;44.782;10.356;2022-08-05T02:36:44;2.97;;;2.78;;
39982;SDS011;25670;44.782;10.356;2022-08-05T02:39:16;4.13;;;3.05;;
39982;SDS011;25670;44.782;10.356;2022-08-05T02:41:47;3.35;;;2.50;;
39982;SDS011;25670;44.782;10.356;2022-08-05T02:44:15;2.60;;;2.40;;
39982;SDS011;25670;44.782;10.356;2022-08-05T02:46:43;3.20;;;2.80;;
39982;SDS011;25670;44.782;10.356;2022-08-05T02:49:13;2.38;;;2.20;;
39982;SDS011;25670;44.782;10.356;2022-08-05T02:51:41;2.88;;;2.67;;
39982;SDS011;25670;44.782;10.356;2022-08-05T02:54:09;2.83;;;2.70;;
39982;SDS011;25670;44.782;10.356;2022-08-05T02:56:37;5.35;;;2.55;;
39982;SDS011;25670;44.782;10.356;2022-08-05T02:59:06;3.28;;;2.90;;
39982;SDS011;25670;44.782;10.356;2022-08-05T03:01:35;3.22;;;3.03;;
39982;SDS011;25670;44.782;10.356;2022-08-05T03:04:08;3.75;;;3.28;;
39982;SDS011;25670;44.782;10.356;2022-08-05T03:06:39;3.60;;;3.22;;
39982;SDS011;25670;44.782;10.356;2022-08-05T03:09:07;3.40;;;2.63;;
39982;SDS011;25670;44.782;10.356;2022-08-05T03:11:37;2.38;;;2.17;;
39982;SDS011;25670;44.782;10.356;2022-08-05T03:14:07;2.45;;;2.30;;
39982;SDS011;25670;44.782;10.356;2022-08-05T03:16:33;2.60;;;2.45;;
39982;SDS011;25670;44.782;10.356;2022-08-05T03:18:59;2.65;;;2.45;;
39982;SDS011;25670;44.782;10.356;2022-08-05T03:21:26;5.30;;;2.90;;
39982;SDS011;25670;44.782;10.356;2022-08-05T03:23:52;3.65;;;2.80;;
39982;SDS011;25670;44.782;10.356;2022-08-05T03:26:22;4.60;;;2.60;;
39982;SDS011;25670;44.782;10.356;2022-08-05T03:28:48;2.90;;;2.60;;
39982;SDS011;25670;44.782;10.356;2022-08-05T03:31:15;13.95;;;2.95;;
39982;SDS011;25670;44.782;10.356;2022-08-05T03:33:41;4.60;;;3.15;;
39982;SDS011;25670;44.782;10.356;2022-08-05T03:36:09;4.13;;;3.35;;
39982;SDS011;25670;44.782;10.356;2022-08-05T03:38:39;3.92;;;3.72;;
39982;SDS011;25670;44.782;10.356;2022-08-05T03:41:08;3.80;;;3.20;;
39982;SDS011;25670;44.782;10.356;2022-08-05T03:43:35;4.20;;;2.90;;
39982;SDS011;25670;44.782;10.356;2022-08-05T03:46:02;2.97;;;2.78;;
39982;SDS011;25670;44.782;10.356;2022-08-05T03:48:29;4.35;;;2.70;;
39982;SDS011;25670;44.782;10.356;2022-08-05T03:53:48;4.07;;;2.30;;
39982;SDS011;25670;44.782;10.356;2022-08-05T03:56:32;4.68;;;2.90;;
39982;SDS011;25670;44.782;10.356;2022-08-05T03:59:22;4.82;;;2.83;;
39982;SDS011;25670;44.782;10.356;2022-08-05T04:01:53;7.18;;;2.50;;
39982;SDS011;25670;44.782;10.356;2022-08-05T04:04:20;3.78;;;2.67;;
39982;SDS011;25670;44.782;10.356;2022-08-05T04:06:48;2.50;;;2.30;;
39982;SDS011;25670;44.782;10.356;2022-08-05T04:09:15;2.97;;;2.47;;
39982;SDS011;25670;44.782;10.356;2022-08-05T04:11:42;3.65;;;2.67;;
39982;SDS011;25670;44.782;10.356;2022-08-05T04:14:09;3.17;;;2.97;;
39982;SDS011;25670;44.782;10.356;2022-08-05T04:16:35;2.58;;;2.38;;
39982;SDS011;25670;44.782;10.356;2022-08-05T04:19:03;4.50;;;2.17;;
39982;SDS011;25670;44.782;10.356;2022-08-05T04:21:29;2.38;;;2.25;;
39982;SDS011;25670;44.782;10.356;2022-08-05T04:23:56;2.70;;;2.50;;
39982;SDS011;25670;44.782;10.356;2022-08-05T04:26:25;4.20;;;2.10;;
39982;SDS011;25670;44.782;10.356;2022-08-05T04:28:51;2.95;;;2.40;;
39982;SDS011;25670;44.782;10.356;2022-08-05T04:31:18;2.80;;;2.58;;
39982;SDS011;25670;44.782;10.356;2022-08-05T04:33:47;3.10;;;2.47;;
39982;SDS011;25670;44.782;10.356;2022-08-05T04:36:14;4.70;;;2.42;;
39982;SDS011;25670;44.782;10.356;2022-08-05T04:38:41;3.95;;;2.35;;
39982;SDS011;25670;44.782;10.356;2022-08-05T04:41:08;4.18;;;2.55;;
39982;SDS011;25670;44.782;10.356;2022-08-05T04:43:34;2.70;;;2.50;;
39982;SDS011;25670;44.782;10.356;2022-08-05T04:46:02;4.90;;;3.15;;
39982;SDS011;25670;44.782;10.356;2022-08-05T04:48:29;2.78;;;2.00;;
39982;SDS011;25670;44.782;10.356;2022-08-05T04:50:56;2.58;;;2.38;;
39982;SDS011;25670;44.782;10.356;2022-08-05T04:53:22;3.53;;;3.22;;
39982;SDS011;25670;44.782;10.356;2022-08-05T04:55:49;2.55;;;2.35;;
39982;SDS011;25670;44.782;10.356;2022-08-05T04:58:15;3.15;;;2.10;;
39982;SDS011;25670;44.782;10.356;2022-08-05T05:00:42;2.53;;;2.33;;
39982;SDS011;25670;44.782;10.356;2022-08-05T05:03:09;1.80;;;1.70;;
39982;SDS011;25670;44.782;10.356;2022-08-05T05:05:36;5.05;;;2.60;;
39982;SDS011;25670;44.782;10.356;2022-08-05T05:08:04;2.60;;;2.40;;
39982;SDS011;25670;44.782;10.356;2022-08-05T05:10:38;2.63;;;2.40;;
39982;SDS011;25670;44.782;10.356;2022-08-05T05:13:11;8.23;;;2.40;;
39982;SDS011;25670;44.782;10.356;2022-08-05T05:15:39;3.90;;;2.90;;
39982;SDS011;25670;44.782;10.356;2022-08-05T05:18:05;3.30;;;2.92;;
39982;SDS011;25670;44.782;10.356;2022-08-05T05:20:32;2.97;;;2.30;;
39982;SDS011;25670;44.782;10.356;2022-08-05T05:22:59;4.35;;;2.38;;
39982;SDS011;25670;44.782;10.356;2022-08-05T05:25:26;3.30;;;3.10;;
39982;SDS011;25670;44.782;10.356;2022-08-05T05:27:52;3.90;;;3.47;;
39982;SDS011;25670;44.782;10.356;2022-08-05T05:30:20;4.55;;;3.88;;
39982;SDS011;25670;44.782;10.356;2022-08-05T05:32:47;4.38;;;4.07;;
39982;SDS011;25670;44.782;10.356;2022-08-05T05:35:14;8.55;;;3.75;;
39982;SDS011;25670;44.782;10.356;2022-08-05T05:40:25;9.20;;;3.72;;
39982;SDS011;25670;44.782;10.356;2022-08-05T05:42:52;3.50;;;2.60;;
39982;SDS011;25670;44.782;10.356;2022-08-05T05:45:19;9.50;;;3.08;;
39982;SDS011;25670;44.782;10.356;2022-08-05T05:47:45;12.93;;;2.50;;
39982;SDS011;25670;44.782;10.356;2022-08-05T05:50:18;2.10;;;2.00;;
39982;SDS011;25670;44.782;10.356;2022-08-05T05:52:46;3.65;;;2.90;;
39982;SDS011;25670;44.782;10.356;2022-08-05T05:55:13;6.47;;;2.20;;
39982;SDS011;25670;44.782;10.356;2022-08-05T05:57:41;2.28;;;2.17;;
39982;SDS011;25670;44.782;10.356;2022-08-05T06:00:10;3.88;;;2.50;;
39982;SDS011;25670;44.782;10.356;2022-08-05T06:02:38;2.47;;;1.63;;
39982;SDS011;25670;44.782;10.356;2022-08-05T06:05:06;2.58;;;2.10;;
39982;SDS011;25670;44.782;10.356;2022-08-05T06:07:33;2.22;;;2.08;;
39982;SDS011;25670;44.782;10.356;2022-08-05T06:09:59;7.28;;;2.22;;
39982;SDS011;25670;44.782;10.356;2022-08-05T06:12:25;1.80;;;1.70;;
39982;SDS011;25670;44.782;10.356;2022-08-05T06:14:52;1.88;;;1.77;;
39982;SDS011;25670;44.782;10.356;2022-08-05T06:17:18;6.78;;;2.28;;
39982;SDS011;25670;44.782;10.356;2022-08-05T06:19:44;2.75;;;2.28;;
39982;SDS011;25670;44.782;10.356;2022-08-05T06:22:10;2.65;;;1.95;;
39982;SDS011;25670;44.782;10.356;2022-08-05T06:24:40;5.07;;;2.10;;
39982;SDS011;25670;44.782;10.356;2022-08-05T06:27:07;3.72;;;2.67;;
39982;SDS011;25670;44.782;10.356;2022-08-05T06:29:33;2.90;;;2.45;;
39982;SDS011;25670;44.782;10.356;2022-08-05T06:32:00;2.15;;;1.98;;
39982;SDS011;25670;44.782;10.356;2022-08-05T06:34:27;2.55;;;2.22;;
39982;SDS011;25670;44.782;10.356;2022-08-05T06:36:53;5.85;;;1.63;;
39982;SDS011;25670;44.782;10.356;2022-08-05T06:39:25;2.45;;;1.95;;
39982;SDS011;25670;44.782;10.356;2022-08-05T06:41:52;2.83;;;2.05;;
39982;SDS011;25670;44.782;10.356;2022-08-05T06:44:18;3.00;;;2.13;;
39982;SDS011;25670;44.782;10.356;2022-08-05T06:46:44;21.77;;;2.42;;
39982;SDS011;25670;44.782;10.356;2022-08-05T06:49:11;6.32;;;1.85;;
39982;SDS011;25670;44.782;10.356;2022-08-05T06:51:37;3.08;;;1.75;;
39982;SDS011;25670;44.782;10.356;2022-08-05T06:54:06;2.38;;;2.17;;
39982;SDS011;25670;44.782;10.356;2022-08-05T06:56:33;5.53;;;2.40;;
39982;SDS011;25670;44.782;10.356;2022-08-05T06:58:59;9.75;;;2.03;;
39982;SDS011;25670;44.782;10.356;2022-08-05T07:01:25;9.48;;;2.10;;
39982;SDS011;25670;44.782;10.356;2022-08-05T07:03:51;2.05;;;1.95;;
39982;SDS011;25670;44.782;10.356;2022-08-05T07:06:38;3.90;;;2.47;;
39982;SDS011;25670;44.782;10.356;2022-08-05T07:09:04;10.82;;;2.10;;
39982;SDS011;25670;44.782;10.356;2022-08-05T07:11:33;6.45;;;2.10;;
39982;SDS011;25670;44.782;10.356;2022-08-05T07:14:00;11.10;;;2.45;;
39982;SDS011;25670;44.782;10.356;2022-08-05T07:17:04;6.97;;;2.40;;
39982;SDS011;25670;44.782;10.356;2022-08-05T07:19:31;2.92;;;2.60;;
39982;SDS011;25670;44.782;10.356;2022-08-05T07:21:57;6.20;;;2.70;;
39982;SDS011;25670;44.782;10.356;2022-08-05T07:24:24;4.55;;;2.13;;
39982;SDS011;25670;44.782;10.356;2022-08-05T07:26:50;3.55;;;2.53;;
39982;SDS011;25670;44.782;10.356;2022-08-05T07:29:17;2.30;;;2.10;;
39982;SDS011;25670;44.782;10.356;2022-08-05T07:31:43;5.18;;;2.83;;
39982;SDS011;25670;44.782;10.356;2022-08-05T07:34:10;3.33;;;2.55;;
39982;SDS011;25670;44.782;10.356;2022-08-05T07:36:39;4.80;;;2.10;;
39982;SDS011;25670;44.782;10.356;2022-08-05T07:39:07;5.88;;;2.42;;
39982;SDS011;25670;44.782;10.356;2022-08-05T07:41:34;10.65;;;2.30;;
39982;SDS011;25670;44.782;10.356;2022-08-05T07:44:01;8.32;;;2.22;;
39982;SDS011;25670;44.782;10.356;2022-08-05T07:46:29;11.15;;;2.85;;
39982;SDS011;25670;44.782;10.356;2022-08-05T07:48:57;7.70;;;2.22;;
39982;SDS011;25670;44.782;10.356;2022-08-05T07:51:24;7.40;;;2.40;;
39982;SDS011;25670;44.782;10.356;2022-08-05T07:53:50;5.03;;;2.38;;
39982;SDS011;25670;44.782;10.356;2022-08-05T07:56:17;7.22;;;2.35;;
39982;SDS011;25670;44.782;10.356;2022-08-05T07:58:43;8.85;;;2.80;;
39982;SDS011;25670;44.782;10.356;2022-08-05T08:01:09;14.30;;;3.10;;
39982;SDS011;25670;44.782;10.356;2022-08-05T08:03:36;5.35;;;2.97;;
39982;SDS011;25670;44.782;10.356;2022-08-05T08:06:02;2.85;;;2.58;;
39982;SDS011;25670;44.782;10.356;2022-08-05T08:08:28;2.13;;;2.03;;
39982;SDS011;25670;44.782;10.356;2022-08-05T08:10:55;3.00;;;2.40;;
39982;SDS011;25670;44.782;10.356;2022-08-05T08:13:21;5.00;;;2.72;;
39982;SDS011;25670;44.782;10.356;2022-08-05T08:15:48;2.47;;;2.38;;
39982;SDS011;25670;44.782;10.356;2022-08-05T08:18:14;12.77;;;2.80;;
39982;SDS011;25670;44.782;10.356;2022-08-05T08:20:40;3.30;;;2.70;;
39982;SDS011;25670;44.782;10.356;2022-08-05T08:23:07;3.67;;;2.50;;
39982;SDS011;25670;44.782;10.356;2022-08-05T08:25:34;2.63;;;2.40;;
39982;SDS011;25670;44.782;10.356;2022-08-05T08:28:00;5.28;;;2.58;;
39982;SDS011;25670;44.782;10.356;2022-08-05T08:30:26;3.50;;;2.55;;
39982;SDS011;25670;44.782;10.356;2022-08-05T08:32:52;3.33;;;3.00;;
39982;SDS011;25670;44.782;10.356;2022-08-05T08:35:19;9.50;;;3.00;;
39982;SDS011;25670;44.782;10.356;2022-08-05T08:37:45;6.95;;;2.80;;
39982;SDS011;25670;44.782;10.356;2022-08-05T08:40:11;14.18;;;2.92;;
39982;SDS011;25670;44.782;10.356;2022-08-05T08:42:38;6.43;;;3.10;;
39982;SDS011;25670;44.782;10.356;2022-08-05T08:45:05;3.97;;;3.03;;
39982;SDS011;25670;44.782;10.356;2022-08-05T08:47:32;7.93;;;3.58;;
39982;SDS011;25670;44.782;10.356;2022-08-05T08:49:59;5.60;;;3.58;;
39982;SDS011;25670;44.782;10.356;2022-08-05T08:52:29;4.70;;;3.33;;
39982;SDS011;25670;44.782;10.356;2022-08-05T08:54:58;3.67;;;2.75;;
39982;SDS011;25670;44.782;10.356;2022-08-05T08:57:27;6.13;;;3.30;;
39982;SDS011;25670;44.782;10.356;2022-08-05T08:59:54;7.05;;;3.95;;
39982;SDS011;25670;44.782;10.356;2022-08-05T09:02:22;5.85;;;5.43;;
39982;SDS011;25670;44.782;10.356;2022-08-05T09:04:50;4.80;;;4.32;;
39982;SDS011;25670;44.782;10.356;2022-08-05T09:07:16;8.63;;;6.18;;
39982;SDS011;25670;44.782;10.356;2022-08-05T09:09:42;19.30;;;7.10;;
39982;SDS011;25670;44.782;10.356;2022-08-05T09:12:10;12.05;;;6.15;;
39982;SDS011;25670;44.782;10.356;2022-08-05T09:14:37;21.17;;;7.85;;
39982;SDS011;25670;44.782;10.356;2022-08-05T09:17:04;7.47;;;6.80;;
39982;SDS011;25670;44.782;10.356;2022-08-05T09:19:42;15.23;;;9.82;;
39982;SDS011;25670;44.782;10.356;2022-08-05T09:22:11;16.13;;;10.43;;
39982;SDS011;25670;44.782;10.356;2022-08-05T09:24:38;14.02;;;10.57;;
39982;SDS011;25670;44.782;10.356;2022-08-05T09:27:06;13.05;;;8.68;;
39982;SDS011;25670;44.782;10.356;2022-08-05T09:29:37;9.05;;;7.45;;
39982;SDS011;25670;44.782;10.356;2022-08-05T09:32:11;7.57;;;6.75;;
39982;SDS011;25670;44.782;10.356;2022-08-05T09:37:21;13.15;;;6.93;;
39982;SDS011;25670;44.782;10.356;2022-08-05T09:39:49;8.77;;;6.63;;
39982;SDS011;25670;44.782;10.356;2022-08-05T09:42:20;10.43;;;6.40;;
39982;SDS011;25670;44.782;10.356;2022-08-05T09:44:48;6.68;;;6.18;;
39982;SDS011;25670;44.782;10.356;2022-08-05T09:49:47;6.38;;;5.35;;
39982;SDS011;25670;44.782;10.356;2022-08-05T09:52:33;4.70;;;3.80;;
39982;SDS011;25670;44.782;10.356;2022-08-05T09:57:30;7.43;;;4.07;;
39982;SDS011;25670;44.782;10.356;2022-08-05T09:59:59;3.55;;;3.00;;
39982;SDS011;25670;44.782;10.356;2022-08-05T10:02:40;5.55;;;3.33;;
39982;SDS011;25670;44.782;10.356;2022-08-05T10:05:15;6.47;;;3.40;;
39982;SDS011;25670;44.782;10.356;2022-08-05T10:10:15;8.18;;;4.70;;
39982;SDS011;25670;44.782;10.356;2022-08-05T10:12:45;6.78;;;3.50;;
39982;SDS011;25670;44.782;10.356;2022-08-05T10:20:40;3.58;;;2.53;;
39982;SDS011;25670;44.782;10.356;2022-08-05T10:23:08;4.75;;;3.33;;
39982;SDS011;25670;44.782;10.356;2022-08-05T10:25:36;5.30;;;3.55;;
39982;SDS011;25670;44.782;10.356;2022-08-05T10:28:04;3.85;;;3.10;;
39982;SDS011;25670;44.782;10.356;2022-08-05T10:30:30;4.68;;;2.55;;
39982;SDS011;25670;44.782;10.356;2022-08-05T10:32:57;5.93;;;2.70;;
39982;SDS011;25670;44.782;10.356;2022-08-05T10:35:24;6.18;;;2.83;;
39982;SDS011;25670;44.782;10.356;2022-08-05T10:37:51;3.75;;;3.28;;
39982;SDS011;25670;44.782;10.356;2022-08-05T10:40:20;4.03;;;2.63;;
39982;SDS011;25670;44.782;10.356;2022-08-05T10:45:55;6.40;;;3.08;;
39982;SDS011;25670;44.782;10.356;2022-08-05T10:48:35;3.13;;;2.83;;
39982;SDS011;25670;44.782;10.356;2022-08-05T10:56:09;5.28;;;1.85;;
39982;SDS011;25670;44.782;10.356;2022-08-05T11:01:26;6.10;;;2.65;;
39982;SDS011;25670;44.782;10.356;2022-08-05T11:15:07;2.05;;;1.85;;
39982;SDS011;25670;44.782;10.356;2022-08-05T11:18:37;7.00;;;2.03;;
39982;SDS011;25670;44.782;10.356;2022-08-05T11:20:49;4.63;;;1.80;;
39982;SDS011;25670;44.782;10.356;2022-08-05T11:26:01;3.42;;;1.70;;
39982;SDS011;25670;44.782;10.356;2022-08-05T11:28:36;1.40;;;1.30;;
39982;SDS011;25670;44.782;10.356;2022-08-05T11:36:17;2.25;;;1.60;;
39982;SDS011;25670;44.782;10.356;2022-08-05T11:41:21;2.53;;;1.48;;
39982;SDS011;25670;44.782;10.356;2022-08-05T11:46:24;8.18;;;1.75;;
39982;SDS011;25670;44.782;10.356;2022-08-05T11:48:54;1.83;;;1.73;;
39982;SDS011;25670;44.782;10.356;2022-08-05T11:51:21;2.05;;;1.85;;
39982;SDS011;25670;44.782;10.356;2022-08-05T11:53:49;6.85;;;1.65;;
39982;SDS011;25670;44.782;10.356;2022-08-05T11:56:19;3.50;;;1.30;;
39982;SDS011;25670;44.782;10.356;2022-08-05T11:58:46;2.05;;;1.42;;
39982;SDS011;25670;44.782;10.356;2022-08-05T12:01:15;2.42;;;1.33;;
39982;SDS011;25670;44.782;10.356;2022-08-05T12:03:47;0.93;;;0.75;;
39982;SDS011;25670;44.782;10.356;2022-08-05T12:06:19;3.03;;;1.45;;
39982;SDS011;25670;44.782;10.356;2022-08-05T12:08:51;4.35;;;1.35;;
39982;SDS011;25670;44.782;10.356;2022-08-05T12:11:23;1.67;;;1.48;;
39982;SDS011;25670;44.782;10.356;2022-08-05T12:13:58;6.32;;;1.27;;
39982;SDS011;25670;44.782;10.356;2022-08-05T12:16:32;3.40;;;1.33;;
39982;SDS011;25670;44.782;10.356;2022-08-05T12:19:01;1.73;;;1.63;;
39982;SDS011;25670;44.782;10.356;2022-08-05T12:24:00;1.10;;;1.10;;
39982;SDS011;25670;44.782;10.356;2022-08-05T12:26:37;1.08;;;1.08;;
39982;SDS011;25670;44.782;10.356;2022-08-05T12:29:05;2.13;;;1.33;;
39982;SDS011;25670;44.782;10.356;2022-08-05T12:31:33;4.03;;;1.63;;
39982;SDS011;25670;44.782;10.356;2022-08-05T12:34:00;3.17;;;1.27;;
39982;SDS011;25670;44.782;10.356;2022-08-05T12:36:27;1.40;;;1.30;;
39982;SDS011;25670;44.782;10.356;2022-08-05T12:38:55;3.17;;;1.38;;
39982;SDS011;25670;44.782;10.356;2022-08-05T12:41:28;2.05;;;1.20;;
39982;SDS011;25670;44.782;10.356;2022-08-05T12:44:00;1.67;;;1.58;;
39982;SDS011;25670;44.782;10.356;2022-08-05T12:46:29;2.05;;;1.30;;
39982;SDS011;25670;44.782;10.356;2022-08-05T12:49:00;1.67;;;1.40;;
39982;SDS011;25670;44.782;10.356;2022-08-05T12:54:24;3.58;;;1.80;;
39982;SDS011;25670;44.782;10.356;2022-08-05T12:56:56;1.65;;;1.55;;
39982;SDS011;25670;44.782;10.356;2022-08-05T12:59:28;6.45;;;1.70;;
39982;SDS011;25670;44.782;10.356;2022-08-05T13:02:17;1.35;;;1.25;;
39982;SDS011;25670;44.782;10.356;2022-08-05T13:07:15;5.65;;;1.27;;
39982;SDS011;25670;44.782;10.356;2022-08-05T13:09:49;2.28;;;1.40;;
39982;SDS011;25670;44.782;10.356;2022-08-05T13:12:23;1.50;;;1.42;;
39982;SDS011;25670;44.782;10.356;2022-08-05T13:14:57;2.67;;;1.35;;
39982;SDS011;25670;44.782;10.356;2022-08-05T13:17:25;1.48;;;1.38;;
39982;SDS011;25670;44.782;10.356;2022-08-05T13:20:05;3.90;;;1.30;;
39982;SDS011;25670;44.782;10.356;2022-08-05T13:22:39;1.70;;;1.60;;
39982;SDS011;25670;44.782;10.356;2022-08-05T13:25:17;3.47;;;1.45;;
39982;SDS011;25670;44.782;10.356;2022-08-05T13:27:53;3.60;;;1.30;;
39982;SDS011;25670;44.782;10.356;2022-08-05T13:30:22;2.45;;;1.52;;
39982;SDS011;25670;44.782;10.356;2022-08-05T13:32:51;1.40;;;1.40;;
39982;SDS011;25670;44.782;10.356;2022-08-05T13:35:18;2.35;;;1.48;;
39982;SDS011;25670;44.782;10.356;2022-08-05T13:37:45;4.10;;;1.25;;
39982;SDS011;25670;44.782;10.356;2022-08-05T13:40:12;1.70;;;1.60;;
39982;SDS011;25670;44.782;10.356;2022-08-05T13:42:39;4.20;;;1.40;;
39982;SDS011;25670;44.782;10.356;2022-08-05T13:45:05;4.20;;;1.70;;
39982;SDS011;25670;44.782;10.356;2022-08-05T13:47:32;9.40;;;1.70;;
39982;SDS011;25670;44.782;10.356;2022-08-05T13:49:59;3.13;;;1.80;;
39982;SDS011;25670;44.782;10.356;2022-08-05T13:52:26;1.40;;;1.30;;
39982;SDS011;25670;44.782;10.356;2022-08-05T13:54:54;2.60;;;1.35;;
39982;SDS011;25670;44.782;10.356;2022-08-05T13:57:21;2.35;;;1.27;;
39982;SDS011;25670;44.782;10.356;2022-08-05T13:59:47;2.38;;;1.40;;
39982;SDS011;25670;44.782;10.356;2022-08-05T14:02:14;1.73;;;1.40;;
39982;SDS011;25670;44.782;10.356;2022-08-05T14:04:43;1.33;;;1.23;;
39982;SDS011;25670;44.782;10.356;2022-08-05T14:07:36;2.78;;;1.50;;
39982;SDS011;25670;44.782;10.356;2022-08-05T14:10:18;1.40;;;1.30;;
39982;SDS011;25670;44.782;10.356;2022-08-05T14:12:47;1.50;;;1.35;;
39982;SDS011;25670;44.782;10.356;2022-08-05T14:15:14;3.08;;;1.40;;
39982;SDS011;25670;44.782;10.356;2022-08-05T14:17:40;4.30;;;1.45;;
39982;SDS011;25670;44.782;10.356;2022-08-05T14:20:07;2.60;;;1.40;;
39982;SDS011;25670;44.782;10.356;2022-08-05T14:22:34;1.50;;;1.40;;
39982;SDS011;25670;44.782;10.356;2022-08-05T14:25:01;4.93;;;1.30;;
39982;SDS011;25670;44.782;10.356;2022-08-05T14:27:28;4.05;;;1.70;;
39982;SDS011;25670;44.782;10.356;2022-08-05T14:29:55;3.95;;;1.30;;
39982;SDS011;25670;44.782;10.356;2022-08-05T14:32:21;2.55;;;1.40;;
39982;SDS011;25670;44.782;10.356;2022-08-05T14:34:49;1.65;;;1.55;;
39982;SDS011;25670;44.782;10.356;2022-08-05T14:37:15;1.30;;;1.20;;
39982;SDS011;25670;44.782;10.356;2022-08-05T14:39:42;2.67;;;1.58;;
39982;SDS011;25670;44.782;10.356;2022-08-05T14:42:08;1.50;;;1.40;;
39982;SDS011;25670;44.782;10.356;2022-08-05T14:44:35;1.42;;;1.33;;
39982;SDS011;25670;44.782;10.356;2022-08-05T14:47:01;2.75;;;1.33;;
39982;SDS011;25670;44.782;10.356;2022-08-05T14:49:28;1.35;;;1.23;;
39982;SDS011;25670;44.782;10.356;2022-08-05T14:51:56;1.67;;;1.58;;
39982;SDS011;25670;44.782;10.356;2022-08-05T14:54:23;3.47;;;1.60;;
39982;SDS011;25670;44.782;10.356;2022-08-05T14:56:50;3.13;;;1.85;;
39982;SDS011;25670;44.782;10.356;2022-08-05T14:59:16;4.22;;;1.63;;
39982;SDS011;25670;44.782;10.356;2022-08-05T15:01:45;1.58;;;1.48;;
39982;SDS011;25670;44.782;10.356;2022-08-05T15:04:14;5.97;;;2.00;;
39982;SDS011;25670;44.782;10.356;2022-08-05T15:06:44;1.65;;;1.50;;
39982;SDS011;25670;44.782;10.356;2022-08-05T15:09:10;2.00;;;1.90;;
39982;SDS011;25670;44.782;10.356;2022-08-05T15:11:37;2.10;;;1.50;;
39982;SDS011;25670;44.782;10.356;2022-08-05T15:14:03;1.85;;;1.67;;
39982;SDS011;25670;44.782;10.356;2022-08-05T15:16:30;2.15;;;1.70;;
39982;SDS011;25670;44.782;10.356;2022-08-05T15:19:00;2.25;;;2.15;;
39982;SDS011;25670;44.782;10.356;2022-08-05T15:21:28;2.22;;;1.80;;
39982;SDS011;25670;44.782;10.356;2022-08-05T15:23:55;4.72;;;1.95;;
39982;SDS011;25670;44.782;10.356;2022-08-05T15:26:24;1.73;;;1.63;;
39982;SDS011;25670;44.782;10.356;2022-08-05T15:28:53;5.20;;;1.67;;
39982;SDS011;25670;44.782;10.356;2022-08-05T15:31:19;2.05;;;1.52;;
39982;SDS011;25670;44.782;10.356;2022-08-05T15:33:45;2.30;;;2.10;;
39982;SDS011;25670;44.782;10.356;2022-08-05T15:36:12;1.55;;;1.40;;
39982;SDS011;25670;44.782;10.356;2022-08-05T15:38:38;5.50;;;1.63;;
39982;SDS011;25670;44.782;10.356;2022-08-05T15:41:05;1.73;;;1.55;;
39982;SDS011;25670;44.782;10.356;2022-08-05T15:43:31;7.57;;;1.80;;
39982;SDS011;25670;44.782;10.356;2022-08-05T15:45:57;1.55;;;1.45;;
39982;SDS011;25670;44.782;10.356;2022-08-05T15:48:24;5.00;;;1.73;;
39982;SDS011;25670;44.782;10.356;2022-08-05T15:50:50;2.80;;;1.80;;
39982;SDS011;25670;44.782;10.356;2022-08-05T15:53:16;3.95;;;2.15;;
39982;SDS011;25670;44.782;10.356;2022-08-05T15:55:42;3.30;;;1.75;;
39982;SDS011;25670;44.782;10.356;2022-08-05T15:58:09;2.17;;;1.63;;
39982;SDS011;25670;44.782;10.356;2022-08-05T16:00:35;1.88;;;1.75;;
39982;SDS011;25670;44.782;10.356;2022-08-05T16:03:01;5.35;;;1.58;;
39982;SDS011;25670;44.782;10.356;2022-08-05T16:05:28;1.23;;;1.23;;